createdAt,value
2023-02-13T00:01:53.095Z,13.38
2023-02-13T00:04:19.645Z,13.77
2023-02-13T00:06:47.965Z,13.85
2023-02-13T00:09:15.031Z,14.10
2023-02-13T00:11:41.801Z,12.73
2023-02-13T00:14:08.568Z,13.75
2023-02-13T00:16:35.181Z,12.98
2023-02-13T00:19:01.801Z,12.57
2023-02-13T00:21:28.403Z,12.68
2023-02-13T00:23:55.022Z,12.15
2023-02-13T00:26:21.634Z,13.60
2023-02-13T00:28:48.205Z,14.02
2023-02-13T00:31:17.977Z,13.25
2023-02-13T00:33:44.757Z,12.88
2023-02-13T00:36:13.935Z,14.45
2023-02-13T00:38:41.449Z,13.48
2023-02-13T00:41:08.643Z,12.57
2023-02-13T00:43:35.973Z,13.75
2023-02-13T00:46:03.021Z,14.45
2023-02-13T00:48:31.357Z,14.57
2023-02-13T00:50:58.322Z,14.00
2023-02-13T00:53:26.330Z,14.52
2023-02-13T00:55:52.912Z,13.68
2023-02-13T00:58:20.234Z,14.95
2023-02-13T01:00:47.404Z,14.10
2023-02-13T01:03:15.154Z,15.27
2023-02-13T01:05:41.979Z,15.35
2023-02-13T01:08:08.959Z,13.50
2023-02-13T01:10:37.557Z,13.15
2023-02-13T01:15:30.606Z,14.15
2023-02-13T01:17:57.606Z,13.82
2023-02-13T01:20:25.082Z,15.30
2023-02-13T01:22:51.660Z,14.63
2023-02-13T01:25:18.335Z,13.55
2023-02-13T01:27:45.221Z,13.38
2023-02-13T01:30:14.324Z,12.93
2023-02-13T01:32:42.531Z,14.27
2023-02-13T01:35:10.466Z,14.20
2023-02-13T01:37:37.583Z,14.68
2023-02-13T01:40:04.909Z,13.57
2023-02-13T01:42:33.593Z,13.73
2023-02-13T01:45:03.071Z,13.60
2023-02-13T01:47:41.168Z,13.90
2023-02-13T01:50:15.943Z,14.60
2023-02-13T01:52:47.796Z,14.27
2023-02-13T01:55:14.726Z,13.15
2023-02-13T01:57:42.578Z,13.80
2023-02-13T02:00:13.337Z,13.45
2023-02-13T02:02:43.402Z,13.15
2023-02-13T02:05:10.237Z,13.27
2023-02-13T02:07:38.585Z,14.20
2023-02-13T02:10:09.779Z,13.38
2023-02-13T02:12:47.922Z,14.43
2023-02-13T02:15:14.501Z,13.85
2023-02-13T02:17:41.289Z,13.40
2023-02-13T02:20:10.775Z,13.57
2023-02-13T02:23:14.264Z,13.98
2023-02-13T02:26:28.862Z,14.23
2023-02-13T02:29:13.755Z,12.80
2023-02-13T02:32:02.048Z,12.23
2023-02-13T02:37:27.118Z,12.70
2023-02-13T02:40:06.986Z,12.50
2023-02-13T02:42:45.654Z,13.23
2023-02-13T02:45:23.632Z,12.98
2023-02-13T02:48:32.032Z,13.70
2023-02-13T02:51:16.928Z,13.57
2023-02-13T02:53:55.540Z,14.32
2023-02-13T02:56:30.426Z,13.55
2023-02-13T02:59:22.705Z,13.00
2023-02-13T03:02:08.506Z,12.82
2023-02-13T03:05:00.112Z,13.10
2023-02-13T03:07:27.093Z,12.38
2023-02-13T03:10:18.802Z,11.45
2023-02-13T03:13:11.575Z,12.55
2023-02-13T03:16:00.636Z,12.88
2023-02-13T03:18:46.918Z,12.23
2023-02-13T03:21:37.516Z,12.45
2023-02-13T03:24:13.985Z,12.48
2023-02-13T03:27:08.633Z,11.88
2023-02-13T03:30:05.116Z,11.70
2023-02-13T03:32:46.226Z,11.60
2023-02-13T03:35:53.232Z,10.95
2023-02-13T03:38:22.606Z,10.90
2023-02-13T03:41:17.082Z,10.95
2023-02-13T03:44:02.896Z,11.48
2023-02-13T03:46:34.698Z,10.40
2023-02-13T03:49:23.253Z,10.93
2023-02-13T03:52:06.745Z,11.18
2023-02-13T03:55:01.661Z,10.77
2023-02-13T03:57:48.830Z,10.13
2023-02-13T04:00:36.819Z,11.00
2023-02-13T04:03:12.870Z,10.98
2023-02-13T04:05:45.502Z,10.82
2023-02-13T04:08:12.142Z,11.77
2023-02-13T04:10:54.669Z,10.90
2023-02-13T04:13:28.584Z,11.68
2023-02-13T04:16:02.708Z,10.80
2023-02-13T04:18:31.314Z,11.23
2023-02-13T04:23:24.840Z,10.63
2023-02-13T04:25:52.768Z,11.98
2023-02-13T04:28:19.404Z,11.27
2023-02-13T04:30:46.136Z,10.48
2023-02-13T04:33:12.791Z,10.60
2023-02-13T04:35:39.381Z,9.32
2023-02-13T04:38:05.950Z,9.57
2023-02-13T04:40:32.526Z,11.07
2023-02-13T04:42:59.211Z,9.80
2023-02-13T04:45:25.810Z,10.20
2023-02-13T04:47:53.881Z,8.98
2023-02-13T04:50:20.767Z,10.90
2023-02-13T04:52:47.709Z,9.48
2023-02-13T04:55:14.425Z,9.77
2023-02-13T04:57:41.010Z,8.98
2023-02-13T05:00:08.361Z,9.32
2023-02-13T05:02:34.918Z,10.00
2023-02-13T05:05:01.479Z,8.98
2023-02-13T05:07:28.030Z,9.75
2023-02-13T05:09:54.606Z,8.80
2023-02-13T05:12:21.151Z,9.10
2023-02-13T05:14:47.872Z,9.05
2023-02-13T05:17:15.108Z,9.77
2023-02-13T05:19:41.662Z,9.68
2023-02-13T05:22:28.336Z,9.27
2023-02-13T05:24:54.930Z,8.48
2023-02-13T05:27:21.504Z,9.10
2023-02-13T05:29:48.063Z,8.73
2023-02-13T05:32:14.749Z,9.18
2023-02-13T05:34:41.335Z,8.98
2023-02-13T05:37:07.886Z,7.30
2023-02-13T05:39:34.473Z,8.25
2023-02-13T05:42:01.035Z,7.82
2023-02-13T05:44:27.626Z,9.10
2023-02-13T05:46:54.284Z,8.77
2023-02-13T05:49:21.103Z,8.50
2023-02-13T05:51:47.702Z,10.00
2023-02-13T05:54:14.481Z,9.20
2023-02-13T05:56:41.358Z,8.88
2023-02-13T05:59:07.937Z,8.10
2023-02-13T06:01:34.502Z,9.02
2023-02-13T06:04:03.789Z,8.82
2023-02-13T06:06:30.670Z,8.98
2023-02-13T06:08:57.270Z,8.98
2023-02-13T06:11:24.037Z,9.00
2023-02-13T06:13:50.605Z,8.63
2023-02-13T06:16:17.225Z,8.38
2023-02-13T06:18:43.823Z,9.35
2023-02-13T06:21:10.431Z,8.52
2023-02-13T06:23:37.007Z,9.18
2023-02-13T06:26:05.364Z,8.98
2023-02-13T06:28:32.358Z,9.63
2023-02-13T06:30:59.603Z,10.38
2023-02-13T06:33:26.545Z,11.68
2023-02-13T06:35:53.210Z,10.63
2023-02-13T06:38:21.528Z,10.05
2023-02-13T06:40:49.144Z,9.82
2023-02-13T06:43:16.271Z,9.33
2023-02-13T06:45:42.823Z,9.77
2023-02-13T06:48:09.666Z,9.13
2023-02-13T06:50:36.308Z,9.02
2023-02-13T06:53:02.964Z,10.25
2023-02-13T06:55:29.575Z,10.70
2023-02-13T06:57:56.210Z,10.73
2023-02-13T07:00:22.958Z,9.38
2023-02-13T07:02:49.623Z,9.90
2023-02-13T07:05:16.462Z,10.35
2023-02-13T07:07:43.358Z,10.27
2023-02-13T07:10:12.359Z,10.10
2023-02-13T07:12:39.280Z,10.27
2023-02-13T07:15:06.809Z,10.82
2023-02-13T07:17:34.044Z,10.48
2023-02-13T07:20:00.727Z,10.30
2023-02-13T07:22:27.432Z,10.57
2023-02-13T07:24:54.083Z,10.32
2023-02-13T07:27:20.654Z,10.18
2023-02-13T07:29:47.252Z,10.18
2023-02-13T07:32:13.813Z,9.70
2023-02-13T07:34:52.190Z,9.38
2023-02-13T07:37:28.894Z,8.73
2023-02-13T07:39:55.516Z,9.00
2023-02-13T07:42:22.120Z,9.07
2023-02-13T07:44:48.670Z,8.52
2023-02-13T07:47:15.282Z,10.10
2023-02-13T07:49:41.870Z,9.55
2023-02-13T07:52:08.461Z,9.48
2023-02-13T07:54:36.925Z,8.98
2023-02-13T07:57:04.417Z,7.85
2023-02-13T07:59:31.006Z,9.38
2023-02-13T08:01:57.604Z,9.02
2023-02-13T08:04:26.284Z,8.35
2023-02-13T08:06:52.956Z,8.55
2023-02-13T08:09:40.755Z,9.00
2023-02-13T08:12:08.960Z,7.93
2023-02-13T08:14:35.650Z,8.30
2023-02-13T08:17:02.332Z,8.18
2023-02-13T08:19:29.089Z,7.70
2023-02-13T08:21:55.875Z,7.05
2023-02-13T08:24:22.480Z,7.18
2023-02-13T08:26:49.183Z,7.30
2023-02-13T08:29:15.816Z,8.15
2023-02-13T08:31:42.531Z,7.82
2023-02-13T08:34:09.261Z,7.68
2023-02-13T08:36:36.732Z,7.70
2023-02-13T08:39:03.649Z,7.45
2023-02-13T08:41:30.347Z,6.65
2023-02-13T08:43:57.030Z,6.93
2023-02-13T08:46:24.010Z,7.90
2023-02-13T08:48:50.655Z,6.65
2023-02-13T08:51:17.197Z,6.05
2023-02-13T08:53:43.831Z,6.90
2023-02-13T08:56:10.943Z,6.82
2023-02-13T08:58:37.602Z,6.93
2023-02-13T09:01:08.294Z,6.82
2023-02-13T09:03:35.871Z,6.78
2023-02-13T09:06:03.023Z,7.22
2023-02-13T09:08:29.696Z,6.75
2023-02-13T09:11:01.377Z,7.32
2023-02-13T09:13:29.765Z,7.35
2023-02-13T09:16:01.609Z,6.55
2023-02-13T09:18:28.648Z,7.18
2023-02-13T09:21:03.666Z,8.48
2023-02-13T09:23:35.182Z,6.40
2023-02-13T09:26:03.038Z,7.75
2023-02-13T09:28:31.033Z,6.93
2023-02-13T09:30:58.176Z,7.75
2023-02-13T09:33:25.708Z,7.80
2023-02-13T09:35:52.672Z,8.02
2023-02-13T09:38:19.282Z,7.63
2023-02-13T09:40:53.780Z,7.05
2023-02-13T09:43:47.608Z,7.78
2023-02-13T09:46:18.988Z,7.13
2023-02-13T09:48:49.083Z,9.02
2023-02-13T09:51:18.481Z,7.72
2023-02-13T09:54:02.667Z,7.93
2023-02-13T09:56:52.769Z,7.07
2023-02-13T09:59:31.398Z,7.70
2023-02-13T10:02:01.518Z,7.40
2023-02-13T10:04:49.349Z,9.25
2023-02-13T10:07:25.921Z,7.95
2023-02-13T10:10:02.529Z,7.30
2023-02-13T10:12:35.282Z,7.55
2023-02-13T10:15:16.240Z,7.43
2023-02-13T10:17:44.807Z,7.93
2023-02-13T10:23:28.339Z,6.85
2023-02-13T10:26:01.081Z,6.57
2023-02-13T10:28:35.318Z,7.50
2023-02-13T10:31:08.571Z,6.57
2023-02-13T10:33:43.621Z,7.05
2023-02-13T10:36:10.188Z,7.43
2023-02-13T10:39:10.640Z,7.45
2023-02-13T10:42:22.949Z,6.53
2023-02-13T10:45:09.717Z,6.75
2023-02-13T10:47:55.020Z,7.13
2023-02-13T10:50:24.532Z,5.88
2023-02-13T10:53:07.882Z,5.65
2023-02-13T10:55:47.820Z,5.85
2023-02-13T10:58:24.594Z,5.32
2023-02-13T11:00:58.596Z,5.75
2023-02-13T11:03:27.158Z,5.88
2023-02-13T11:08:25.394Z,5.65
2023-02-13T11:10:52.753Z,5.25
2023-02-13T11:13:24.656Z,4.82
2023-02-13T11:16:13.918Z,4.88
2023-02-13T11:18:42.073Z,5.53
2023-02-13T11:21:16.790Z,4.93
2023-02-13T11:23:50.073Z,5.47
2023-02-13T11:26:34.006Z,5.35
2023-02-13T11:29:06.785Z,6.30
2023-02-13T11:31:36.105Z,5.82
2023-02-13T11:34:27.308Z,6.18
2023-02-13T11:37:10.196Z,6.15
2023-02-13T11:39:36.783Z,5.95
2023-02-13T11:42:03.473Z,6.75
2023-02-13T11:44:31.972Z,6.10
2023-02-13T11:49:32.746Z,6.23
2023-02-13T11:52:24.263Z,5.93
2023-02-13T11:55:05.227Z,6.45
2023-02-13T11:57:37.015Z,5.72
2023-02-13T12:00:40.438Z,6.53
2023-02-13T12:03:22.552Z,6.20
2023-02-13T12:06:00.790Z,5.97
2023-02-13T12:08:28.212Z,6.80
2023-02-13T12:10:55.249Z,5.80
2023-02-13T12:13:27.893Z,5.95
2023-02-13T12:16:01.131Z,6.00
2023-02-13T12:18:40.644Z,5.38
2023-02-13T12:21:44.707Z,6.15
2023-02-13T12:24:43.418Z,5.88
2023-02-13T12:27:22.617Z,6.57
2023-02-13T12:29:58.552Z,5.75
2023-02-13T12:32:37.219Z,5.35
2023-02-13T12:35:27.582Z,5.60
2023-02-13T12:38:05.542Z,6.10
2023-02-13T12:41:01.235Z,5.45
2023-02-13T12:44:09.600Z,5.90
2023-02-13T12:49:28.479Z,5.60
2023-02-13T12:52:26.069Z,5.43
2023-02-13T12:54:58.869Z,6.25
2023-02-13T12:57:40.826Z,5.63
2023-02-13T13:00:28.742Z,6.00
2023-02-13T13:03:13.745Z,5.45
2023-02-13T13:06:14.720Z,5.35
2023-02-13T13:08:47.391Z,5.18
2023-02-13T13:11:18.302Z,5.57
2023-02-13T13:14:00.986Z,5.28
2023-02-13T13:17:03.077Z,6.28
2023-02-13T13:19:40.362Z,5.68
2023-02-13T13:22:14.217Z,5.28
2023-02-13T13:24:59.690Z,5.32
2023-02-13T13:27:44.241Z,5.55
2023-02-13T13:30:34.629Z,6.07
2023-02-13T13:33:23.096Z,5.40
2023-02-13T13:36:13.623Z,4.78
2023-02-13T13:38:51.907Z,6.05
2023-02-13T13:41:49.450Z,6.15
2023-02-13T13:44:35.414Z,6.15
2023-02-13T13:47:15.277Z,5.40
2023-02-13T13:49:57.690Z,5.60
2023-02-13T13:52:39.793Z,6.13
2023-02-13T13:55:06.998Z,6.00
2023-02-13T13:57:43.017Z,6.43
2023-02-13T14:00:12.093Z,5.85
2023-02-13T14:02:51.385Z,5.80
2023-02-13T14:05:19.954Z,6.40
2023-02-13T14:10:26.405Z,5.57
2023-02-13T14:12:55.938Z,5.70
2023-02-13T14:15:35.008Z,5.88
2023-02-13T14:18:08.030Z,5.63
2023-02-13T14:20:38.722Z,5.80
2023-02-13T14:23:29.742Z,5.55
2023-02-13T14:26:15.209Z,5.63
2023-02-13T14:28:47.663Z,5.15
2023-02-13T14:31:29.400Z,5.57
2023-02-13T14:34:10.956Z,4.82
2023-02-13T14:36:47.174Z,5.28
2023-02-13T14:39:20.610Z,5.05
2023-02-13T14:41:56.175Z,5.30
2023-02-13T14:44:39.143Z,5.45
2023-02-13T14:47:14.898Z,5.35
2023-02-13T14:49:42.478Z,5.47
2023-02-13T14:52:19.946Z,5.78
2023-02-13T14:54:50.334Z,6.30
2023-02-13T14:57:29.820Z,5.35
2023-02-13T14:59:59.606Z,5.95
2023-02-13T15:02:30.980Z,5.07
2023-02-13T15:05:01.377Z,5.82
2023-02-13T15:07:31.654Z,6.18
2023-02-13T15:10:01.969Z,4.60
2023-02-13T15:12:36.996Z,4.95
2023-02-13T15:15:23.949Z,4.97
2023-02-13T15:17:50.985Z,5.80
2023-02-13T15:20:20.354Z,5.25
2023-02-13T15:22:47.301Z,4.97
2023-02-13T15:25:30.658Z,4.80
2023-02-13T15:27:59.194Z,5.05
2023-02-13T15:30:27.985Z,5.35
2023-02-13T15:32:55.859Z,5.10
2023-02-13T15:35:34.169Z,4.75
2023-02-13T15:38:20.905Z,4.97
2023-02-13T15:40:49.493Z,4.82
2023-02-13T15:45:51.191Z,5.05
2023-02-13T15:48:17.905Z,5.45
2023-02-13T15:50:45.255Z,4.93
2023-02-13T15:53:15.299Z,4.80
2023-02-13T15:55:41.932Z,4.70
2023-02-13T15:58:13.370Z,4.63
2023-02-13T16:00:42.020Z,5.05
2023-02-13T16:03:15.195Z,4.75
2023-02-13T16:05:41.905Z,4.95
2023-02-13T16:08:36.091Z,5.10
2023-02-13T16:11:25.413Z,4.70
2023-02-13T16:13:51.954Z,4.50
2023-02-13T16:16:18.593Z,4.93
2023-02-13T16:18:45.191Z,4.30
2023-02-13T16:21:11.819Z,5.00
2023-02-13T16:23:38.386Z,5.00
2023-02-13T16:26:08.117Z,4.88
2023-02-13T16:28:34.744Z,5.43
2023-02-13T16:31:03.459Z,4.75
2023-02-13T16:33:37.981Z,5.18
2023-02-13T16:36:10.648Z,5.68
2023-02-13T16:38:40.106Z,5.18
2023-02-13T16:41:26.583Z,5.68
2023-02-13T16:43:57.161Z,6.05
2023-02-13T16:46:42.521Z,6.18
2023-02-13T16:49:09.356Z,7.07
2023-02-13T16:51:44.280Z,6.43
2023-02-13T16:54:10.774Z,6.38
2023-02-13T16:56:41.946Z,7.22
2023-02-13T16:59:17.628Z,5.90
2023-02-13T17:01:44.339Z,7.43
2023-02-13T17:04:22.998Z,8.48
2023-02-13T17:06:55.322Z,8.63
2023-02-13T17:09:22.232Z,6.13
2023-02-13T17:11:52.972Z,6.13
2023-02-13T17:14:20.575Z,6.28
2023-02-13T17:16:48.186Z,6.40
2023-02-13T17:19:14.877Z,5.90
2023-02-13T17:21:42.248Z,5.63
2023-02-13T17:24:14.694Z,5.20
2023-02-13T17:26:41.255Z,5.20
2023-02-13T17:29:07.870Z,5.03
2023-02-13T17:31:34.560Z,4.95
2023-02-13T17:34:01.202Z,4.57
2023-02-13T17:36:27.895Z,4.80
2023-02-13T17:38:54.500Z,4.43
2023-02-13T17:41:21.251Z,4.55
2023-02-13T17:43:47.838Z,4.68
2023-02-13T17:46:17.005Z,4.55
2023-02-13T17:48:43.627Z,4.97
2023-02-13T17:51:13.954Z,4.90
2023-02-13T17:53:40.596Z,5.35
2023-02-13T17:56:07.203Z,4.78
2023-02-13T17:58:33.768Z,4.82
2023-02-13T18:01:00.797Z,4.93
2023-02-13T18:03:27.798Z,4.65
2023-02-13T18:05:54.378Z,4.43
2023-02-13T18:08:21.053Z,4.53
2023-02-13T18:10:47.600Z,4.82
2023-02-13T18:13:14.550Z,4.85
2023-02-13T18:15:44.661Z,4.63
2023-02-13T18:18:14.349Z,5.40
2023-02-13T18:20:40.955Z,4.72
2023-02-13T18:23:08.074Z,5.38
2023-02-13T18:25:35.089Z,4.63
2023-02-13T18:28:01.896Z,5.13
2023-02-13T18:30:28.766Z,4.70
2023-02-13T18:32:56.480Z,4.68
2023-02-13T18:35:23.861Z,5.07
2023-02-13T18:37:51.061Z,5.20
2023-02-13T18:40:17.960Z,4.93
2023-02-13T18:42:45.220Z,4.85
2023-02-13T18:45:12.430Z,4.82
2023-02-13T18:47:39.761Z,5.65
2023-02-13T18:50:07.047Z,5.30
2023-02-13T18:52:34.357Z,5.18
2023-02-13T18:55:00.897Z,4.85
2023-02-13T18:57:27.533Z,5.57
2023-02-13T18:59:54.095Z,4.80
2023-02-13T19:02:20.683Z,5.70
2023-02-13T19:04:47.275Z,5.57
2023-02-13T19:07:13.918Z,6.47
2023-02-13T19:09:40.924Z,5.88
2023-02-13T19:12:08.089Z,7.05
2023-02-13T19:14:34.784Z,7.00
2023-02-13T19:17:01.417Z,7.15
2023-02-13T19:19:28.078Z,7.22
2023-02-13T19:21:54.716Z,6.45
2023-02-13T19:24:21.331Z,6.90
2023-02-13T19:26:47.982Z,7.20
2023-02-13T19:29:14.651Z,6.88
2023-02-13T19:31:41.525Z,6.93
2023-02-13T19:34:08.313Z,6.82
2023-02-13T19:36:35.047Z,6.70
2023-02-13T19:39:04.436Z,6.82
2023-02-13T19:41:31.611Z,7.13
2023-02-13T19:43:58.582Z,6.47
2023-02-13T19:46:30.611Z,6.97
2023-02-13T19:48:57.587Z,6.15
2023-02-13T19:51:29.637Z,6.78
2023-02-13T19:53:57.709Z,7.18
2023-02-13T19:56:26.309Z,6.88
2023-02-13T19:58:54.148Z,6.55
2023-02-13T20:01:22.700Z,7.30
2023-02-13T20:03:49.394Z,7.07
2023-02-13T20:06:21.554Z,6.82
2023-02-13T20:08:48.676Z,6.18
2023-02-13T20:11:16.978Z,7.38
2023-02-13T20:13:43.693Z,8.15
2023-02-13T20:16:13.434Z,8.82
2023-02-13T20:18:40.300Z,7.50
2023-02-13T20:21:08.563Z,7.60
2023-02-13T20:23:35.126Z,7.93
2023-02-13T20:26:06.171Z,8.45
2023-02-13T20:28:33.170Z,8.00
2023-02-13T20:31:00.827Z,8.50
2023-02-13T20:33:27.699Z,8.45
2023-02-13T20:35:54.315Z,7.95
2023-02-13T20:38:20.920Z,8.80
2023-02-13T20:40:47.458Z,8.25
2023-02-13T20:43:14.038Z,9.45
2023-02-13T20:45:40.656Z,8.73
2023-02-13T20:48:07.358Z,8.23
2023-02-13T20:50:33.934Z,8.27
2023-02-13T20:53:00.486Z,9.13
2023-02-13T20:55:27.152Z,9.43
2023-02-13T20:57:53.717Z,8.27
2023-02-13T21:00:20.636Z,8.55
2023-02-13T21:02:47.210Z,8.75
2023-02-13T21:05:13.841Z,9.18
2023-02-13T21:07:40.687Z,9.43
2023-02-13T21:10:07.619Z,10.00
2023-02-13T21:12:34.990Z,9.90
2023-02-13T21:15:01.583Z,10.52
2023-02-13T21:17:28.195Z,12.15
2023-02-13T21:19:54.757Z,13.25
2023-02-13T21:22:21.348Z,12.02
2023-02-13T21:24:49.743Z,10.20
2023-02-13T21:27:16.326Z,10.02
2023-02-13T21:29:42.938Z,9.32
2023-02-13T21:32:09.757Z,10.32
2023-02-13T21:34:36.568Z,9.23
2023-02-13T21:37:03.204Z,9.70
2023-02-13T21:39:29.870Z,8.70
2023-02-13T21:41:56.488Z,8.63
2023-02-13T21:44:23.101Z,8.82
2023-02-13T21:46:50.579Z,9.27
2023-02-13T21:49:18.310Z,9.97
2023-02-13T21:51:45.507Z,9.48
2023-02-13T21:54:12.460Z,9.70
2023-02-13T21:56:40.783Z,9.90
2023-02-13T21:59:07.889Z,9.80
2023-02-13T22:01:36.474Z,9.88
2023-02-13T22:04:06.289Z,9.00
2023-02-13T22:06:34.843Z,9.75
2023-02-13T22:11:29.499Z,10.10
2023-02-13T22:13:57.617Z,9.88
2023-02-13T22:16:24.676Z,10.93
2023-02-13T22:18:51.360Z,10.50
2023-02-13T22:21:20.764Z,10.73
2023-02-13T22:23:48.183Z,17.48
2023-02-13T22:26:29.198Z,13.82
2023-02-13T22:28:59.819Z,11.73
2023-02-13T22:31:26.452Z,10.50
2023-02-13T22:34:03.391Z,10.25
2023-02-13T22:36:32.006Z,10.93
2023-02-13T22:38:58.637Z,11.35
2023-02-13T22:41:26.712Z,10.25
2023-02-13T22:43:53.737Z,10.95
2023-02-13T22:46:25.688Z,10.73
2023-02-13T22:48:53.317Z,10.05
2023-02-13T22:51:28.533Z,13.00
2023-02-13T22:53:59.070Z,11.73
2023-02-13T22:56:27.206Z,12.07
2023-02-13T22:58:54.128Z,12.93
2023-02-13T23:01:22.360Z,11.93
2023-02-13T23:03:49.205Z,13.07
2023-02-13T23:06:16.620Z,12.65
2023-02-13T23:08:43.695Z,12.45
2023-02-13T23:11:31.412Z,13.02
2023-02-13T23:13:58.059Z,11.65
2023-02-13T23:16:25.160Z,11.63
2023-02-13T23:18:53.056Z,11.40
2023-02-13T23:21:19.817Z,10.77
2023-02-13T23:23:46.571Z,12.18
2023-02-13T23:26:13.163Z,12.15
2023-02-13T23:28:40.040Z,12.10
2023-02-13T23:31:06.931Z,12.20
2023-02-13T23:33:33.576Z,13.57
2023-02-13T23:36:00.170Z,12.73
2023-02-13T23:38:26.901Z,11.68
2023-02-13T23:40:53.558Z,12.90
2023-02-13T23:43:20.123Z,11.85
2023-02-13T23:45:46.750Z,11.57
2023-02-13T23:48:13.467Z,11.40
2023-02-13T23:50:40.393Z,10.77
2023-02-13T23:53:07.885Z,10.65
2023-02-13T23:55:34.479Z,11.93
2023-02-13T23:58:01.192Z,12.07
